sensor_id;sensor_type;location;lat;lon;timestamp;P1;durP1;ratioP1;P2;durP2;ratioP2
5937;SDS011;2994;51.220;4.412;2023-03-13T00:01:14;8.87;;;4.50;;
5937;SDS011;2994;51.220;4.412;2023-03-13T00:03:39;7.70;;;4.43;;
5937;SDS011;2994;51.220;4.412;2023-03-13T00:06:05;8.70;;;3.60;;
5937;SDS011;2994;51.220;4.412;2023-03-13T00:08:31;8.67;;;5.43;;
5937;SDS011;2994;51.220;4.412;2023-03-13T00:10:57;10.57;;;4.80;;
5937;SDS011;2994;51.220;4.412;2023-03-13T00:13:26;4.40;;;4.00;;
5937;SDS011;2994;51.220;4.412;2023-03-13T00:15:58;9.30;;;3.93;;
5937;SDS011;2994;51.220;4.412;2023-03-13T00:18:33;8.40;;;4.47;;
5937;SDS011;2994;51.220;4.412;2023-03-13T00:23:31;12.67;;;5.50;;
5937;SDS011;2994;51.220;4.412;2023-03-13T00:25:59;7.13;;;4.27;;
5937;SDS011;2994;51.220;4.412;2023-03-13T00:28:29;5.90;;;4.00;;
5937;SDS011;2994;51.220;4.412;2023-03-13T00:31:03;6.43;;;3.97;;
5937;SDS011;2994;51.220;4.412;2023-03-13T00:33:30;8.63;;;5.00;;
5937;SDS011;2994;51.220;4.412;2023-03-13T00:36:00;5.43;;;3.80;;
5937;SDS011;2994;51.220;4.412;2023-03-13T00:38:26;6.87;;;2.93;;
5937;SDS011;2994;51.220;4.412;2023-03-13T00:41:04;5.77;;;3.87;;
5937;SDS011;2994;51.220;4.412;2023-03-13T00:43:29;7.47;;;3.87;;
5937;SDS011;2994;51.220;4.412;2023-03-13T00:45:56;5.87;;;3.93;;
5937;SDS011;2994;51.220;4.412;2023-03-13T00:48:21;11.27;;;3.87;;
5937;SDS011;2994;51.220;4.412;2023-03-13T00:50:47;7.60;;;3.70;;
5937;SDS011;2994;51.220;4.412;2023-03-13T00:53:13;5.40;;;3.80;;
5937;SDS011;2994;51.220;4.412;2023-03-13T00:55:38;9.60;;;4.70;;
5937;SDS011;2994;51.220;4.412;2023-03-13T00:58:03;10.87;;;3.80;;
5937;SDS011;2994;51.220;4.412;2023-03-13T01:00:29;4.13;;;3.17;;
5937;SDS011;2994;51.220;4.412;2023-03-13T01:02:54;5.73;;;4.37;;
5937;SDS011;2994;51.220;4.412;2023-03-13T01:05:20;8.47;;;4.00;;
5937;SDS011;2994;51.220;4.412;2023-03-13T01:07:45;8.03;;;4.00;;
5937;SDS011;2994;51.220;4.412;2023-03-13T01:10:11;4.73;;;3.20;;
5937;SDS011;2994;51.220;4.412;2023-03-13T01:12:36;5.90;;;3.13;;
5937;SDS011;2994;51.220;4.412;2023-03-13T01:15:02;5.63;;;3.90;;
5937;SDS011;2994;51.220;4.412;2023-03-13T01:17:27;5.37;;;3.37;;
5937;SDS011;2994;51.220;4.412;2023-03-13T01:19:54;7.53;;;3.10;;
5937;SDS011;2994;51.220;4.412;2023-03-13T01:22:22;5.67;;;4.20;;
5937;SDS011;2994;51.220;4.412;2023-03-13T01:24:48;8.43;;;3.83;;
5937;SDS011;2994;51.220;4.412;2023-03-13T01:27:16;6.20;;;3.73;;
5937;SDS011;2994;51.220;4.412;2023-03-13T01:29:43;6.73;;;3.90;;
5937;SDS011;2994;51.220;4.412;2023-03-13T01:32:08;7.10;;;4.00;;
5937;SDS011;2994;51.220;4.412;2023-03-13T01:34:34;7.03;;;4.50;;
5937;SDS011;2994;51.220;4.412;2023-03-13T01:36:59;4.77;;;4.10;;
5937;SDS011;2994;51.220;4.412;2023-03-13T01:39:25;9.70;;;4.10;;
5937;SDS011;2994;51.220;4.412;2023-03-13T01:41:50;8.37;;;3.93;;
5937;SDS011;2994;51.220;4.412;2023-03-13T01:44:23;6.63;;;4.10;;
5937;SDS011;2994;51.220;4.412;2023-03-13T01:46:50;6.87;;;4.10;;
5937;SDS011;2994;51.220;4.412;2023-03-13T01:49:23;5.60;;;4.23;;
5937;SDS011;2994;51.220;4.412;2023-03-13T01:51:57;10.23;;;4.13;;
5937;SDS011;2994;51.220;4.412;2023-03-13T01:54:32;7.97;;;4.30;;
5937;SDS011;2994;51.220;4.412;2023-03-13T01:57:24;5.23;;;3.90;;
5937;SDS011;2994;51.220;4.412;2023-03-13T01:59:58;6.43;;;4.70;;
5937;SDS011;2994;51.220;4.412;2023-03-13T02:02:24;7.57;;;3.77;;
5937;SDS011;2994;51.220;4.412;2023-03-13T02:04:52;7.27;;;3.50;;
5937;SDS011;2994;51.220;4.412;2023-03-13T02:07:22;6.07;;;4.40;;
5937;SDS011;2994;51.220;4.412;2023-03-13T02:09:52;6.60;;;4.90;;
5937;SDS011;2994;51.220;4.412;2023-03-13T02:14:54;4.37;;;3.97;;
5937;SDS011;2994;51.220;4.412;2023-03-13T02:17:21;4.40;;;3.77;;
5937;SDS011;2994;51.220;4.412;2023-03-13T02:19:49;7.33;;;4.07;;
5937;SDS011;2994;51.220;4.412;2023-03-13T02:25:02;10.23;;;4.00;;
5937;SDS011;2994;51.220;4.412;2023-03-13T02:27:38;6.93;;;3.43;;
5937;SDS011;2994;51.220;4.412;2023-03-13T02:30:04;5.80;;;3.60;;
5937;SDS011;2994;51.220;4.412;2023-03-13T02:32:31;7.60;;;4.57;;
5937;SDS011;2994;51.220;4.412;2023-03-13T02:34:58;6.07;;;4.00;;
5937;SDS011;2994;51.220;4.412;2023-03-13T02:37:28;4.43;;;4.03;;
5937;SDS011;2994;51.220;4.412;2023-03-13T02:39:55;4.47;;;4.07;;
5937;SDS011;2994;51.220;4.412;2023-03-13T02:42:24;4.33;;;3.43;;
5937;SDS011;2994;51.220;4.412;2023-03-13T02:44:49;4.03;;;3.63;;
5937;SDS011;2994;51.220;4.412;2023-03-13T02:47:25;4.30;;;3.80;;
5937;SDS011;2994;51.220;4.412;2023-03-13T02:49:50;5.23;;;3.87;;
5937;SDS011;2994;51.220;4.412;2023-03-13T02:54:41;4.80;;;4.20;;
5937;SDS011;2994;51.220;4.412;2023-03-13T02:57:11;4.73;;;3.40;;
5937;SDS011;2994;51.220;4.412;2023-03-13T02:59:37;6.00;;;4.17;;
5937;SDS011;2994;51.220;4.412;2023-03-13T03:02:02;4.77;;;3.97;;
5937;SDS011;2994;51.220;4.412;2023-03-13T03:04:28;4.53;;;3.57;;
5937;SDS011;2994;51.220;4.412;2023-03-13T03:06:54;6.00;;;4.60;;
5937;SDS011;2994;51.220;4.412;2023-03-13T03:09:20;5.97;;;4.10;;
5937;SDS011;2994;51.220;4.412;2023-03-13T03:11:47;7.37;;;4.43;;
5937;SDS011;2994;51.220;4.412;2023-03-13T03:14:12;4.97;;;3.37;;
5937;SDS011;2994;51.220;4.412;2023-03-13T03:16:38;5.30;;;4.80;;
5937;SDS011;2994;51.220;4.412;2023-03-13T03:19:04;5.87;;;4.40;;
5937;SDS011;2994;51.220;4.412;2023-03-13T03:21:30;6.07;;;4.33;;
5937;SDS011;2994;51.220;4.412;2023-03-13T03:23:57;5.53;;;4.23;;
5937;SDS011;2994;51.220;4.412;2023-03-13T03:26:23;4.77;;;4.20;;
5937;SDS011;2994;51.220;4.412;2023-03-13T03:28:48;5.50;;;3.90;;
5937;SDS011;2994;51.220;4.412;2023-03-13T03:31:14;4.30;;;3.83;;
5937;SDS011;2994;51.220;4.412;2023-03-13T03:33:40;5.40;;;4.30;;
5937;SDS011;2994;51.220;4.412;2023-03-13T03:36:10;5.33;;;4.00;;
5937;SDS011;2994;51.220;4.412;2023-03-13T03:38:40;6.40;;;3.90;;
5937;SDS011;2994;51.220;4.412;2023-03-13T03:41:07;4.53;;;3.23;;
5937;SDS011;2994;51.220;4.412;2023-03-13T03:43:33;3.80;;;3.50;;
5937;SDS011;2994;51.220;4.412;2023-03-13T03:45:59;4.23;;;3.53;;
5937;SDS011;2994;51.220;4.412;2023-03-13T03:48:25;4.63;;;3.47;;
5937;SDS011;2994;51.220;4.412;2023-03-13T03:50:50;5.67;;;3.83;;
5937;SDS011;2994;51.220;4.412;2023-03-13T03:53:16;6.30;;;4.37;;
5937;SDS011;2994;51.220;4.412;2023-03-13T03:55:41;6.03;;;3.30;;
5937;SDS011;2994;51.220;4.412;2023-03-13T03:58:07;3.60;;;3.30;;
5937;SDS011;2994;51.220;4.412;2023-03-13T04:00:32;6.17;;;3.37;;
5937;SDS011;2994;51.220;4.412;2023-03-13T04:02:58;5.93;;;3.90;;
5937;SDS011;2994;51.220;4.412;2023-03-13T04:05:23;3.30;;;2.90;;
5937;SDS011;2994;51.220;4.412;2023-03-13T04:07:49;3.70;;;3.17;;
5937;SDS011;2994;51.220;4.412;2023-03-13T04:10:15;7.57;;;3.77;;
5937;SDS011;2994;51.220;4.412;2023-03-13T04:12:40;5.67;;;3.93;;
5937;SDS011;2994;51.220;4.412;2023-03-13T04:15:06;5.70;;;4.00;;
5937;SDS011;2994;51.220;4.412;2023-03-13T04:17:32;2.93;;;2.67;;
5937;SDS011;2994;51.220;4.412;2023-03-13T04:19:57;3.23;;;2.93;;
5937;SDS011;2994;51.220;4.412;2023-03-13T04:22:23;4.50;;;3.37;;
5937;SDS011;2994;51.220;4.412;2023-03-13T04:24:48;5.37;;;3.37;;
5937;SDS011;2994;51.220;4.412;2023-03-13T04:27:14;3.77;;;3.30;;
5937;SDS011;2994;51.220;4.412;2023-03-13T04:29:39;4.90;;;2.90;;
5937;SDS011;2994;51.220;4.412;2023-03-13T04:32:05;3.87;;;3.10;;
5937;SDS011;2994;51.220;4.412;2023-03-13T04:34:31;3.80;;;3.00;;
5937;SDS011;2994;51.220;4.412;2023-03-13T04:36:56;3.83;;;2.60;;
5937;SDS011;2994;51.220;4.412;2023-03-13T04:39:22;3.23;;;3.00;;
5937;SDS011;2994;51.220;4.412;2023-03-13T04:41:51;5.73;;;3.37;;
5937;SDS011;2994;51.220;4.412;2023-03-13T04:44:17;3.37;;;2.77;;
5937;SDS011;2994;51.220;4.412;2023-03-13T04:46:43;5.07;;;2.87;;
5937;SDS011;2994;51.220;4.412;2023-03-13T04:49:09;4.47;;;3.10;;
5937;SDS011;2994;51.220;4.412;2023-03-13T04:51:34;5.03;;;3.40;;
5937;SDS011;2994;51.220;4.412;2023-03-13T04:54:00;3.47;;;3.17;;
5937;SDS011;2994;51.220;4.412;2023-03-13T04:56:26;7.20;;;3.73;;
5937;SDS011;2994;51.220;4.412;2023-03-13T04:58:52;4.17;;;3.17;;
5937;SDS011;2994;51.220;4.412;2023-03-13T05:01:18;5.43;;;2.97;;
5937;SDS011;2994;51.220;4.412;2023-03-13T05:03:44;6.50;;;3.63;;
5937;SDS011;2994;51.220;4.412;2023-03-13T05:06:10;4.40;;;3.13;;
5937;SDS011;2994;51.220;4.412;2023-03-13T05:08:35;5.30;;;3.10;;
5937;SDS011;2994;51.220;4.412;2023-03-13T05:11:01;5.00;;;4.03;;
5937;SDS011;2994;51.220;4.412;2023-03-13T05:13:27;4.53;;;2.53;;
5937;SDS011;2994;51.220;4.412;2023-03-13T05:15:53;4.40;;;2.73;;
5937;SDS011;2994;51.220;4.412;2023-03-13T05:18:20;5.90;;;3.00;;
5937;SDS011;2994;51.220;4.412;2023-03-13T05:20:45;4.53;;;3.30;;
5937;SDS011;2994;51.220;4.412;2023-03-13T05:23:10;5.80;;;3.17;;
5937;SDS011;2994;51.220;4.412;2023-03-13T05:25:36;5.63;;;3.67;;
5937;SDS011;2994;51.220;4.412;2023-03-13T05:28:02;4.47;;;3.07;;
5937;SDS011;2994;51.220;4.412;2023-03-13T05:30:27;4.80;;;3.20;;
5937;SDS011;2994;51.220;4.412;2023-03-13T05:32:53;4.33;;;3.10;;
5937;SDS011;2994;51.220;4.412;2023-03-13T05:35:18;6.77;;;3.60;;
5937;SDS011;2994;51.220;4.412;2023-03-13T05:37:44;5.80;;;2.90;;
5937;SDS011;2994;51.220;4.412;2023-03-13T05:40:10;4.70;;;3.57;;
5937;SDS011;2994;51.220;4.412;2023-03-13T05:42:36;7.67;;;3.53;;
5937;SDS011;2994;51.220;4.412;2023-03-13T05:45:01;4.13;;;2.77;;
5937;SDS011;2994;51.220;4.412;2023-03-13T05:47:27;5.03;;;3.30;;
5937;SDS011;2994;51.220;4.412;2023-03-13T05:49:53;4.17;;;2.93;;
5937;SDS011;2994;51.220;4.412;2023-03-13T05:52:18;5.00;;;3.50;;
5937;SDS011;2994;51.220;4.412;2023-03-13T05:54:43;4.30;;;3.80;;
5937;SDS011;2994;51.220;4.412;2023-03-13T05:57:09;5.90;;;3.40;;
5937;SDS011;2994;51.220;4.412;2023-03-13T05:59:34;5.30;;;2.97;;
5937;SDS011;2994;51.220;4.412;2023-03-13T06:02:00;5.40;;;3.47;;
5937;SDS011;2994;51.220;4.412;2023-03-13T06:04:25;5.47;;;3.40;;
5937;SDS011;2994;51.220;4.412;2023-03-13T06:06:51;6.13;;;2.43;;
5937;SDS011;2994;51.220;4.412;2023-03-13T06:09:16;5.27;;;3.20;;
5937;SDS011;2994;51.220;4.412;2023-03-13T06:11:41;5.63;;;3.40;;
5937;SDS011;2994;51.220;4.412;2023-03-13T06:14:07;5.93;;;4.07;;
5937;SDS011;2994;51.220;4.412;2023-03-13T06:16:32;3.93;;;2.67;;
5937;SDS011;2994;51.220;4.412;2023-03-13T06:18:58;3.90;;;2.80;;
5937;SDS011;2994;51.220;4.412;2023-03-13T06:21:23;7.47;;;3.07;;
5937;SDS011;2994;51.220;4.412;2023-03-13T06:23:49;6.63;;;2.77;;
5937;SDS011;2994;51.220;4.412;2023-03-13T06:26:15;4.70;;;3.10;;
5937;SDS011;2994;51.220;4.412;2023-03-13T06:28:40;6.20;;;3.27;;
5937;SDS011;2994;51.220;4.412;2023-03-13T06:31:06;2.97;;;2.67;;
5937;SDS011;2994;51.220;4.412;2023-03-13T06:33:32;4.67;;;3.10;;
5937;SDS011;2994;51.220;4.412;2023-03-13T06:35:59;7.67;;;3.47;;
5937;SDS011;2994;51.220;4.412;2023-03-13T06:38:25;4.67;;;3.50;;
5937;SDS011;2994;51.220;4.412;2023-03-13T06:40:52;6.63;;;2.70;;
5937;SDS011;2994;51.220;4.412;2023-03-13T06:43:17;5.23;;;3.30;;
5937;SDS011;2994;51.220;4.412;2023-03-13T06:45:44;7.47;;;3.70;;
5937;SDS011;2994;51.220;4.412;2023-03-13T06:48:09;6.60;;;3.90;;
5937;SDS011;2994;51.220;4.412;2023-03-13T06:50:38;8.60;;;4.47;;
5937;SDS011;2994;51.220;4.412;2023-03-13T06:53:04;6.27;;;2.97;;
5937;SDS011;2994;51.220;4.412;2023-03-13T06:55:30;2.90;;;2.60;;
5937;SDS011;2994;51.220;4.412;2023-03-13T06:57:56;4.43;;;2.90;;
5937;SDS011;2994;51.220;4.412;2023-03-13T07:00:21;4.20;;;3.20;;
5937;SDS011;2994;51.220;4.412;2023-03-13T07:02:47;2.90;;;2.47;;
5937;SDS011;2994;51.220;4.412;2023-03-13T07:05:13;8.70;;;4.40;;
5937;SDS011;2994;51.220;4.412;2023-03-13T07:07:39;4.60;;;3.47;;
5937;SDS011;2994;51.220;4.412;2023-03-13T07:10:05;3.80;;;2.60;;
5937;SDS011;2994;51.220;4.412;2023-03-13T07:12:32;6.77;;;2.63;;
5937;SDS011;2994;51.220;4.412;2023-03-13T07:14:59;7.27;;;3.30;;
5937;SDS011;2994;51.220;4.412;2023-03-13T07:17:24;6.27;;;3.30;;
5937;SDS011;2994;51.220;4.412;2023-03-13T07:19:50;3.57;;;3.13;;
5937;SDS011;2994;51.220;4.412;2023-03-13T07:22:15;6.73;;;3.30;;
5937;SDS011;2994;51.220;4.412;2023-03-13T07:24:40;5.60;;;3.00;;
5937;SDS011;2994;51.220;4.412;2023-03-13T07:27:06;4.63;;;2.83;;
5937;SDS011;2994;51.220;4.412;2023-03-13T07:29:31;4.90;;;4.13;;
5937;SDS011;2994;51.220;4.412;2023-03-13T07:31:57;7.90;;;3.80;;
5937;SDS011;2994;51.220;4.412;2023-03-13T07:34:22;6.80;;;4.20;;
5937;SDS011;2994;51.220;4.412;2023-03-13T07:36:48;4.20;;;2.60;;
5937;SDS011;2994;51.220;4.412;2023-03-13T07:39:13;4.73;;;3.30;;
5937;SDS011;2994;51.220;4.412;2023-03-13T07:41:39;6.00;;;4.43;;
5937;SDS011;2994;51.220;4.412;2023-03-13T07:44:04;4.07;;;3.03;;
5937;SDS011;2994;51.220;4.412;2023-03-13T07:46:30;4.33;;;2.80;;
5937;SDS011;2994;51.220;4.412;2023-03-13T07:48:55;4.87;;;3.40;;
5937;SDS011;2994;51.220;4.412;2023-03-13T07:51:22;6.43;;;2.93;;
5937;SDS011;2994;51.220;4.412;2023-03-13T07:53:49;4.80;;;2.53;;
5937;SDS011;2994;51.220;4.412;2023-03-13T07:56:19;4.80;;;2.80;;
5937;SDS011;2994;51.220;4.412;2023-03-13T07:58:46;7.80;;;3.30;;
5937;SDS011;2994;51.220;4.412;2023-03-13T08:01:16;3.60;;;3.30;;
5937;SDS011;2994;51.220;4.412;2023-03-13T08:03:44;5.00;;;2.90;;
5937;SDS011;2994;51.220;4.412;2023-03-13T08:06:11;5.97;;;3.17;;
5937;SDS011;2994;51.220;4.412;2023-03-13T08:08:38;5.60;;;2.77;;
5937;SDS011;2994;51.220;4.412;2023-03-13T08:11:11;5.40;;;2.90;;
5937;SDS011;2994;51.220;4.412;2023-03-13T08:13:38;3.80;;;2.63;;
5937;SDS011;2994;51.220;4.412;2023-03-13T08:16:09;6.50;;;2.90;;
5937;SDS011;2994;51.220;4.412;2023-03-13T08:18:36;4.80;;;2.40;;
5937;SDS011;2994;51.220;4.412;2023-03-13T08:21:03;5.00;;;3.07;;
5937;SDS011;2994;51.220;4.412;2023-03-13T08:23:34;3.10;;;2.53;;
5937;SDS011;2994;51.220;4.412;2023-03-13T08:26:04;5.50;;;2.73;;
5937;SDS011;2994;51.220;4.412;2023-03-13T08:28:31;6.67;;;2.30;;
5937;SDS011;2994;51.220;4.412;2023-03-13T08:30:57;3.70;;;2.90;;
5937;SDS011;2994;51.220;4.412;2023-03-13T08:33:22;6.40;;;3.70;;
5937;SDS011;2994;51.220;4.412;2023-03-13T08:35:48;6.07;;;2.90;;
5937;SDS011;2994;51.220;4.412;2023-03-13T08:38:13;8.80;;;3.20;;
5937;SDS011;2994;51.220;4.412;2023-03-13T08:40:55;4.93;;;3.17;;
5937;SDS011;2994;51.220;4.412;2023-03-13T08:43:21;4.97;;;3.43;;
5937;SDS011;2994;51.220;4.412;2023-03-13T08:45:52;5.53;;;3.27;;
5937;SDS011;2994;51.220;4.412;2023-03-13T08:48:19;3.37;;;2.90;;
5937;SDS011;2994;51.220;4.412;2023-03-13T08:50:45;4.20;;;2.83;;
5937;SDS011;2994;51.220;4.412;2023-03-13T08:53:10;7.97;;;3.97;;
5937;SDS011;2994;51.220;4.412;2023-03-13T08:55:35;6.73;;;3.50;;
5937;SDS011;2994;51.220;4.412;2023-03-13T08:58:01;5.90;;;3.77;;
5937;SDS011;2994;51.220;4.412;2023-03-13T09:00:26;7.30;;;3.53;;
5937;SDS011;2994;51.220;4.412;2023-03-13T09:02:52;7.00;;;3.20;;
5937;SDS011;2994;51.220;4.412;2023-03-13T09:05:17;6.03;;;3.77;;
5937;SDS011;2994;51.220;4.412;2023-03-13T09:07:43;7.63;;;3.40;;
5937;SDS011;2994;51.220;4.412;2023-03-13T09:10:08;3.97;;;3.13;;
5937;SDS011;2994;51.220;4.412;2023-03-13T09:12:34;3.37;;;2.33;;
5937;SDS011;2994;51.220;4.412;2023-03-13T09:15:00;5.80;;;3.17;;
5937;SDS011;2994;51.220;4.412;2023-03-13T09:17:25;3.90;;;3.40;;
5937;SDS011;2994;51.220;4.412;2023-03-13T09:19:50;10.53;;;3.37;;
5937;SDS011;2994;51.220;4.412;2023-03-13T09:22:16;4.43;;;2.27;;
5937;SDS011;2994;51.220;4.412;2023-03-13T09:24:41;2.90;;;2.47;;
5937;SDS011;2994;51.220;4.412;2023-03-13T09:27:08;5.17;;;2.70;;
5937;SDS011;2994;51.220;4.412;2023-03-13T09:29:34;10.77;;;3.27;;
5937;SDS011;2994;51.220;4.412;2023-03-13T09:32:04;4.50;;;2.70;;
5937;SDS011;2994;51.220;4.412;2023-03-13T09:34:29;4.20;;;2.83;;
5937;SDS011;2994;51.220;4.412;2023-03-13T09:36:55;5.50;;;2.50;;
5937;SDS011;2994;51.220;4.412;2023-03-13T09:39:21;4.57;;;2.63;;
5937;SDS011;2994;51.220;4.412;2023-03-13T09:44:27;2.70;;;2.27;;
5937;SDS011;2994;51.220;4.412;2023-03-13T09:49:36;4.90;;;2.40;;
5937;SDS011;2994;51.220;4.412;2023-03-13T09:54:55;4.17;;;2.50;;
5937;SDS011;2994;51.220;4.412;2023-03-13T10:06:10;2.60;;;2.40;;
5937;SDS011;2994;51.220;4.412;2023-03-13T10:08:42;4.17;;;2.37;;
5937;SDS011;2994;51.220;4.412;2023-03-13T10:11:11;2.93;;;2.20;;
5937;SDS011;2994;51.220;4.412;2023-03-13T10:16:41;3.73;;;2.60;;
5937;SDS011;2994;51.220;4.412;2023-03-13T10:19:13;3.00;;;2.23;;
5937;SDS011;2994;51.220;4.412;2023-03-13T10:21:41;4.67;;;2.57;;
5937;SDS011;2994;51.220;4.412;2023-03-13T10:26:50;3.23;;;2.93;;
5937;SDS011;2994;51.220;4.412;2023-03-13T10:29:20;3.30;;;2.40;;
5937;SDS011;2994;51.220;4.412;2023-03-13T10:34:25;5.83;;;2.70;;
5937;SDS011;2994;51.220;4.412;2023-03-13T10:40:13;3.97;;;2.50;;
5937;SDS011;2994;51.220;4.412;2023-03-13T10:42:52;3.13;;;2.83;;
5937;SDS011;2994;51.220;4.412;2023-03-13T10:45:25;4.50;;;2.40;;
5937;SDS011;2994;51.220;4.412;2023-03-13T10:47:55;6.33;;;2.30;;
5937;SDS011;2994;51.220;4.412;2023-03-13T10:50:24;4.33;;;2.60;;
5937;SDS011;2994;51.220;4.412;2023-03-13T10:52:51;2.97;;;2.30;;
5937;SDS011;2994;51.220;4.412;2023-03-13T10:55:18;3.50;;;2.10;;
5937;SDS011;2994;51.220;4.412;2023-03-13T10:57:58;4.70;;;2.30;;
5937;SDS011;2994;51.220;4.412;2023-03-13T11:00:36;2.90;;;2.10;;
5937;SDS011;2994;51.220;4.412;2023-03-13T11:03:18;4.30;;;2.00;;
5937;SDS011;2994;51.220;4.412;2023-03-13T11:05:56;7.33;;;2.03;;
5937;SDS011;2994;51.220;4.412;2023-03-13T11:08:24;5.57;;;1.90;;
5937;SDS011;2994;51.220;4.412;2023-03-13T11:10:55;3.47;;;1.70;;
5937;SDS011;2994;51.220;4.412;2023-03-13T11:13:26;2.90;;;1.80;;
5937;SDS011;2994;51.220;4.412;2023-03-13T11:16:27;4.97;;;1.50;;
5937;SDS011;2994;51.220;4.412;2023-03-13T11:30:04;2.27;;;1.70;;
5937;SDS011;2994;51.220;4.412;2023-03-13T11:33:00;4.10;;;1.70;;
5937;SDS011;2994;51.220;4.412;2023-03-13T11:35:39;2.30;;;1.50;;
5937;SDS011;2994;51.220;4.412;2023-03-13T11:41:10;3.10;;;1.67;;
5937;SDS011;2994;51.220;4.412;2023-03-13T12:00:34;2.50;;;1.67;;
5937;SDS011;2994;51.220;4.412;2023-03-13T12:03:05;2.30;;;1.60;;
5937;SDS011;2994;51.220;4.412;2023-03-13T12:08:19;2.30;;;1.40;;
5937;SDS011;2994;51.220;4.412;2023-03-13T12:11:13;2.43;;;1.53;;
5937;SDS011;2994;51.220;4.412;2023-03-13T12:13:37;3.30;;;1.50;;
5937;SDS011;2994;51.220;4.412;2023-03-13T12:16:09;4.43;;;1.37;;
5937;SDS011;2994;51.220;4.412;2023-03-13T12:18:38;3.37;;;1.73;;
5937;SDS011;2994;51.220;4.412;2023-03-13T12:21:18;5.37;;;1.30;;
5937;SDS011;2994;51.220;4.412;2023-03-13T12:26:48;5.93;;;1.57;;
5937;SDS011;2994;51.220;4.412;2023-03-13T12:32:03;6.10;;;2.40;;
5937;SDS011;2994;51.220;4.412;2023-03-13T12:34:45;3.33;;;1.30;;
5937;SDS011;2994;51.220;4.412;2023-03-13T12:37:33;2.60;;;1.60;;
5937;SDS011;2994;51.220;4.412;2023-03-13T12:40:10;2.00;;;1.33;;
5937;SDS011;2994;51.220;4.412;2023-03-13T12:42:54;22.87;;;5.83;;
5937;SDS011;2994;51.220;4.412;2023-03-13T12:45:23;4.20;;;1.60;;
5937;SDS011;2994;51.220;4.412;2023-03-13T12:50:36;10.80;;;3.73;;
5937;SDS011;2994;51.220;4.412;2023-03-13T13:03:58;4.70;;;2.00;;
5937;SDS011;2994;51.220;4.412;2023-03-13T13:06:29;2.30;;;1.63;;
5937;SDS011;2994;51.220;4.412;2023-03-13T13:09:37;5.40;;;2.33;;
5937;SDS011;2994;51.220;4.412;2023-03-13T13:12:24;5.60;;;1.80;;
5937;SDS011;2994;51.220;4.412;2023-03-13T13:17:18;7.13;;;2.07;;
5937;SDS011;2994;51.220;4.412;2023-03-13T13:23:17;3.90;;;2.00;;
5937;SDS011;2994;51.220;4.412;2023-03-13T13:25:44;2.23;;;1.70;;
5937;SDS011;2994;51.220;4.412;2023-03-13T13:30:43;4.90;;;2.40;;
5937;SDS011;2994;51.220;4.412;2023-03-13T13:35:43;5.60;;;2.07;;
5937;SDS011;2994;51.220;4.412;2023-03-13T13:40:58;5.23;;;2.07;;
5937;SDS011;2994;51.220;4.412;2023-03-13T13:43:33;5.67;;;2.47;;
5937;SDS011;2994;51.220;4.412;2023-03-13T13:48:47;3.93;;;1.60;;
5937;SDS011;2994;51.220;4.412;2023-03-13T13:51:34;2.63;;;1.90;;
5937;SDS011;2994;51.220;4.412;2023-03-13T13:56:59;11.13;;;3.40;;
5937;SDS011;2994;51.220;4.412;2023-03-13T14:04:40;2.50;;;2.00;;
5937;SDS011;2994;51.220;4.412;2023-03-13T14:07:28;4.53;;;1.43;;
5937;SDS011;2994;51.220;4.412;2023-03-13T14:10:02;2.53;;;1.27;;
5937;SDS011;2994;51.220;4.412;2023-03-13T14:12:45;9.20;;;2.17;;
5937;SDS011;2994;51.220;4.412;2023-03-13T14:17:45;3.80;;;2.13;;
5937;SDS011;2994;51.220;4.412;2023-03-13T14:23:03;4.00;;;1.60;;
5937;SDS011;2994;51.220;4.412;2023-03-13T14:28:20;2.30;;;2.00;;
5937;SDS011;2994;51.220;4.412;2023-03-13T14:30:46;5.30;;;2.20;;
5937;SDS011;2994;51.220;4.412;2023-03-13T14:33:13;2.70;;;1.57;;
5937;SDS011;2994;51.220;4.412;2023-03-13T14:35:39;3.50;;;2.00;;
5937;SDS011;2994;51.220;4.412;2023-03-13T14:38:05;4.27;;;2.00;;
5937;SDS011;2994;51.220;4.412;2023-03-13T14:40:32;5.03;;;1.80;;
5937;SDS011;2994;51.220;4.412;2023-03-13T14:43:01;5.13;;;1.60;;
5937;SDS011;2994;51.220;4.412;2023-03-13T14:45:29;4.33;;;1.80;;
5937;SDS011;2994;51.220;4.412;2023-03-13T14:48:00;3.83;;;2.13;;
5937;SDS011;2994;51.220;4.412;2023-03-13T14:50:28;4.23;;;2.00;;
5937;SDS011;2994;51.220;4.412;2023-03-13T14:52:54;3.60;;;1.60;;
5937;SDS011;2994;51.220;4.412;2023-03-13T14:55:35;4.33;;;2.30;;
5937;SDS011;2994;51.220;4.412;2023-03-13T14:58:05;6.27;;;2.40;;
5937;SDS011;2994;51.220;4.412;2023-03-13T15:00:48;4.00;;;1.73;;
5937;SDS011;2994;51.220;4.412;2023-03-13T15:08:15;6.53;;;2.50;;
5937;SDS011;2994;51.220;4.412;2023-03-13T15:10:45;3.87;;;2.10;;
5937;SDS011;2994;51.220;4.412;2023-03-13T15:13:54;6.03;;;2.43;;
5937;SDS011;2994;51.220;4.412;2023-03-13T15:16:01;4.63;;;1.63;;
5937;SDS011;2994;51.220;4.412;2023-03-13T15:18:37;4.23;;;2.20;;
5937;SDS011;2994;51.220;4.412;2023-03-13T15:23:34;3.30;;;2.03;;
5937;SDS011;2994;51.220;4.412;2023-03-13T15:25:59;4.07;;;2.13;;
5937;SDS011;2994;51.220;4.412;2023-03-13T15:28:25;3.70;;;2.30;;
5937;SDS011;2994;51.220;4.412;2023-03-13T15:30:50;4.93;;;2.83;;
5937;SDS011;2994;51.220;4.412;2023-03-13T15:33:21;4.03;;;3.10;;
5937;SDS011;2994;51.220;4.412;2023-03-13T15:35:48;3.97;;;1.90;;
5937;SDS011;2994;51.220;4.412;2023-03-13T15:38:15;3.87;;;2.90;;
5937;SDS011;2994;51.220;4.412;2023-03-13T15:40:42;4.83;;;2.60;;
5937;SDS011;2994;51.220;4.412;2023-03-13T15:43:07;4.67;;;2.13;;
5937;SDS011;2994;51.220;4.412;2023-03-13T15:45:37;3.53;;;2.00;;
5937;SDS011;2994;51.220;4.412;2023-03-13T15:48:15;2.90;;;1.97;;
5937;SDS011;2994;51.220;4.412;2023-03-13T15:50:44;6.67;;;3.07;;
5937;SDS011;2994;51.220;4.412;2023-03-13T15:55:46;3.80;;;3.17;;
5937;SDS011;2994;51.220;4.412;2023-03-13T15:58:13;5.40;;;2.70;;
5937;SDS011;2994;51.220;4.412;2023-03-13T16:00:39;5.83;;;2.40;;
5937;SDS011;2994;51.220;4.412;2023-03-13T16:03:07;6.77;;;2.90;;
5937;SDS011;2994;51.220;4.412;2023-03-13T16:05:37;4.77;;;2.60;;
5937;SDS011;2994;51.220;4.412;2023-03-13T16:08:03;6.20;;;2.17;;
5937;SDS011;2994;51.220;4.412;2023-03-13T16:10:30;4.93;;;3.30;;
5937;SDS011;2994;51.220;4.412;2023-03-13T16:12:56;4.47;;;2.60;;
5937;SDS011;2994;51.220;4.412;2023-03-13T16:15:21;4.17;;;2.80;;
5937;SDS011;2994;51.220;4.412;2023-03-13T16:17:47;5.33;;;2.23;;
5937;SDS011;2994;51.220;4.412;2023-03-13T16:20:14;5.90;;;2.60;;
5937;SDS011;2994;51.220;4.412;2023-03-13T16:22:42;6.67;;;2.60;;
5937;SDS011;2994;51.220;4.412;2023-03-13T16:25:08;4.87;;;2.40;;
5937;SDS011;2994;51.220;4.412;2023-03-13T16:27:34;4.80;;;2.93;;
5937;SDS011;2994;51.220;4.412;2023-03-13T16:30:00;4.70;;;2.57;;
5937;SDS011;2994;51.220;4.412;2023-03-13T16:32:26;4.17;;;2.00;;
5937;SDS011;2994;51.220;4.412;2023-03-13T16:34:52;5.30;;;2.20;;
5937;SDS011;2994;51.220;4.412;2023-03-13T16:37:17;4.00;;;2.40;;
5937;SDS011;2994;51.220;4.412;2023-03-13T16:39:45;8.30;;;2.40;;
5937;SDS011;2994;51.220;4.412;2023-03-13T16:42:11;6.20;;;3.30;;
5937;SDS011;2994;51.220;4.412;2023-03-13T16:44:37;5.43;;;2.60;;
5937;SDS011;2994;51.220;4.412;2023-03-13T16:47:07;6.63;;;2.80;;
5937;SDS011;2994;51.220;4.412;2023-03-13T16:49:48;7.60;;;3.30;;
5937;SDS011;2994;51.220;4.412;2023-03-13T16:52:14;3.87;;;2.23;;
5937;SDS011;2994;51.220;4.412;2023-03-13T16:54:41;3.17;;;2.10;;
5937;SDS011;2994;51.220;4.412;2023-03-13T16:57:11;4.60;;;2.70;;
5937;SDS011;2994;51.220;4.412;2023-03-13T16:59:38;4.20;;;2.70;;
5937;SDS011;2994;51.220;4.412;2023-03-13T17:02:05;5.20;;;2.60;;
5937;SDS011;2994;51.220;4.412;2023-03-13T17:04:38;3.90;;;2.70;;
5937;SDS011;2994;51.220;4.412;2023-03-13T17:07:08;6.00;;;2.23;;
5937;SDS011;2994;51.220;4.412;2023-03-13T17:09:43;5.70;;;2.40;;
5937;SDS011;2994;51.220;4.412;2023-03-13T17:12:08;3.70;;;2.30;;
5937;SDS011;2994;51.220;4.412;2023-03-13T17:14:34;6.00;;;2.87;;
5937;SDS011;2994;51.220;4.412;2023-03-13T17:16:59;5.33;;;2.67;;
5937;SDS011;2994;51.220;4.412;2023-03-13T17:19:25;4.77;;;2.20;;
5937;SDS011;2994;51.220;4.412;2023-03-13T17:21:50;3.13;;;1.97;;
5937;SDS011;2994;51.220;4.412;2023-03-13T17:24:16;4.33;;;2.03;;
5937;SDS011;2994;51.220;4.412;2023-03-13T17:26:41;4.83;;;2.70;;
5937;SDS011;2994;51.220;4.412;2023-03-13T17:29:09;4.50;;;2.10;;
5937;SDS011;2994;51.220;4.412;2023-03-13T17:31:40;3.33;;;2.43;;
5937;SDS011;2994;51.220;4.412;2023-03-13T17:34:06;8.27;;;2.13;;
5937;SDS011;2994;51.220;4.412;2023-03-13T17:36:32;7.43;;;2.77;;